sensor_id;sensor_type;location;lat;lon;timestamp;pressure;altitude;pressure_sealevel;temperature;humidity
61874;BME280;49692;55.052;73.310;2022-07-29T00:01:27;99182.28;;;20.23;95.92
61874;BME280;49692;55.052;73.310;2022-07-29T00:03:53;99186.91;;;20.21;95.86
61874;BME280;49692;55.052;73.310;2022-07-29T00:06:20;99187.19;;;20.27;96.07
61874;BME280;49692;55.052;73.310;2022-07-29T00:08:51;99179.88;;;20.29;95.74
61874;BME280;49692;55.052;73.310;2022-07-29T00:11:23;99176.75;;;20.44;95.31
61874;BME280;49692;55.052;73.310;2022-07-29T00:13:49;99171.97;;;20.38;95.79
61874;BME280;49692;55.052;73.310;2022-07-29T00:16:16;99172.28;;;20.34;95.57
61874;BME280;49692;55.052;73.310;2022-07-29T00:18:43;99166.97;;;20.05;96.28
61874;BME280;49692;55.052;73.310;2022-07-29T00:21:14;99166.28;;;20.13;95.87
61874;BME280;49692;55.052;73.310;2022-07-29T00:23:45;99179.72;;;20.31;95.87
61874;BME280;49692;55.052;73.310;2022-07-29T00:26:13;99187.47;;;20.14;95.74
61874;BME280;49692;55.052;73.310;2022-07-29T00:28:48;99191.69;;;19.97;95.94
61874;BME280;49692;55.052;73.310;2022-07-29T00:31:19;99199.13;;;20.23;95.63
61874;BME280;49692;55.052;73.310;2022-07-29T00:33:46;99194.47;;;20.35;95.58
61874;BME280;49692;55.052;73.310;2022-07-29T00:36:13;99195.88;;;20.29;95.56
61874;BME280;49692;55.052;73.310;2022-07-29T00:38:39;99201.06;;;20.31;95.85
61874;BME280;49692;55.052;73.310;2022-07-29T00:41:10;99204.06;;;20.08;96.29
61874;BME280;49692;55.052;73.310;2022-07-29T00:43:37;99201.81;;;20.03;95.80
61874;BME280;49692;55.052;73.310;2022-07-29T00:46:03;99217.50;;;20.07;95.65
61874;BME280;49692;55.052;73.310;2022-07-29T00:48:30;99209.81;;;20.13;95.43
61874;BME280;49692;55.052;73.310;2022-07-29T00:50:58;99214.28;;;20.13;95.80
61874;BME280;49692;55.052;73.310;2022-07-29T00:53:27;99229.31;;;20.04;95.62
61874;BME280;49692;55.052;73.310;2022-07-29T00:55:57;99216.53;;;20.08;95.23
61874;BME280;49692;55.052;73.310;2022-07-29T00:58:24;99206.84;;;20.07;95.43
61874;BME280;49692;55.052;73.310;2022-07-29T01:00:53;99211.56;;;19.83;95.06
61874;BME280;49692;55.052;73.310;2022-07-29T01:03:20;99216.94;;;19.73;95.22
61874;BME280;49692;55.052;73.310;2022-07-29T01:05:55;99216.09;;;19.93;95.65
61874;BME280;49692;55.052;73.310;2022-07-29T01:08:23;99218.19;;;19.79;96.02
61874;BME280;49692;55.052;73.310;2022-07-29T01:10:50;99207.53;;;19.79;95.00
61874;BME280;49692;55.052;73.310;2022-07-29T01:13:19;99210.75;;;19.83;95.21
61874;BME280;49692;55.052;73.310;2022-07-29T01:15:51;99209.13;;;20.11;95.17
61874;BME280;49692;55.052;73.310;2022-07-29T01:18:46;99214.84;;;20.36;95.69
61874;BME280;49692;55.052;73.310;2022-07-29T01:21:30;99214.84;;;20.16;95.31
61874;BME280;49692;55.052;73.310;2022-07-29T01:27:38;99226.94;;;20.21;95.34
61874;BME280;49692;55.052;73.310;2022-07-29T01:30:30;99234.09;;;20.00;95.15
61874;BME280;49692;55.052;73.310;2022-07-29T01:33:05;99230.75;;;20.18;95.65
61874;BME280;49692;55.052;73.310;2022-07-29T01:35:39;99238.75;;;20.18;95.31
61874;BME280;49692;55.052;73.310;2022-07-29T01:38:13;99240.69;;;20.06;96.23
61874;BME280;49692;55.052;73.310;2022-07-29T01:40:47;99240.25;;;20.01;95.48
61874;BME280;49692;55.052;73.310;2022-07-29T01:43:40;99242.53;;;20.06;95.17
61874;BME280;49692;55.052;73.310;2022-07-29T01:46:18;99241.41;;;20.18;95.22
61874;BME280;49692;55.052;73.310;2022-07-29T01:48:55;99241.22;;;19.80;95.71
61874;BME280;49692;55.052;73.310;2022-07-29T01:51:32;99243.34;;;19.96;95.30
61874;BME280;49692;55.052;73.310;2022-07-29T01:54:08;99253.06;;;20.07;96.32
61874;BME280;49692;55.052;73.310;2022-07-29T01:56:35;99243.16;;;19.68;95.80
61874;BME280;49692;55.052;73.310;2022-07-29T01:59:16;99243.91;;;20.10;95.33
61874;BME280;49692;55.052;73.310;2022-07-29T02:01:45;99251.38;;;20.06;96.06
61874;BME280;49692;55.052;73.310;2022-07-29T02:04:15;99260.50;;;20.03;95.76
61874;BME280;49692;55.052;73.310;2022-07-29T02:06:44;99256.16;;;20.02;95.65
61874;BME280;49692;55.052;73.310;2022-07-29T02:09:13;99256.28;;;20.11;96.06
61874;BME280;49692;55.052;73.310;2022-07-29T02:11:46;99256.56;;;20.08;95.82
61874;BME280;49692;55.052;73.310;2022-07-29T02:14:24;99250.38;;;19.97;95.70
61874;BME280;49692;55.052;73.310;2022-07-29T02:16:54;99268.53;;;20.13;95.85
61874;BME280;49692;55.052;73.310;2022-07-29T02:19:25;99271.88;;;20.06;96.01
61874;BME280;49692;55.052;73.310;2022-07-29T02:21:54;99267.59;;;19.93;96.73
61874;BME280;49692;55.052;73.310;2022-07-29T02:24:24;99276.09;;;20.08;96.42
61874;BME280;49692;55.052;73.310;2022-07-29T02:26:53;99277.91;;;20.08;96.42
61874;BME280;49692;55.052;73.310;2022-07-29T02:29:23;99272.56;;;20.08;96.65
61874;BME280;49692;55.052;73.310;2022-07-29T02:31:54;99256.53;;;19.88;96.80
61874;BME280;49692;55.052;73.310;2022-07-29T02:34:21;99261.84;;;19.88;96.98
61874;BME280;49692;55.052;73.310;2022-07-29T02:36:50;99253.75;;;19.99;97.11
61874;BME280;49692;55.052;73.310;2022-07-29T02:39:18;99266.13;;;20.20;96.47
61874;BME280;49692;55.052;73.310;2022-07-29T02:41:59;99262.03;;;20.45;96.26
61874;BME280;49692;55.052;73.310;2022-07-29T02:44:27;99253.19;;;19.96;96.63
61874;BME280;49692;55.052;73.310;2022-07-29T02:50:13;99250.78;;;20.42;96.77
61874;BME280;49692;55.052;73.310;2022-07-29T02:53:16;99250.69;;;20.33;96.95
61874;BME280;49692;55.052;73.310;2022-07-29T02:55:48;99242.66;;;20.33;96.74
61874;BME280;49692;55.052;73.310;2022-07-29T02:58:42;99249.53;;;20.56;95.93
61874;BME280;49692;55.052;73.310;2022-07-29T03:01:21;99254.88;;;20.36;96.88
61874;BME280;49692;55.052;73.310;2022-07-29T03:03:53;99267.25;;;20.27;96.99
61874;BME280;49692;55.052;73.310;2022-07-29T03:06:22;99259.09;;;20.09;97.07
61874;BME280;49692;55.052;73.310;2022-07-29T03:08:50;99268.38;;;20.34;96.03
61874;BME280;49692;55.052;73.310;2022-07-29T03:11:18;99263.72;;;20.37;96.55
61874;BME280;49692;55.052;73.310;2022-07-29T03:13:45;99259.22;;;20.27;96.29
61874;BME280;49692;55.052;73.310;2022-07-29T03:16:12;99256.56;;;20.37;95.74
61874;BME280;49692;55.052;73.310;2022-07-29T03:18:39;99235.50;;;20.14;95.83
61874;BME280;49692;55.052;73.310;2022-07-29T03:21:06;99252.34;;;20.15;96.62
61874;BME280;49692;55.052;73.310;2022-07-29T03:23:45;99257.38;;;20.57;96.34
61874;BME280;49692;55.052;73.310;2022-07-29T03:26:17;99250.09;;;20.30;95.62
61874;BME280;49692;55.052;73.310;2022-07-29T03:28:46;99263.44;;;20.30;96.05
61874;BME280;49692;55.052;73.310;2022-07-29T03:31:16;99261.06;;;20.17;96.22
61874;BME280;49692;55.052;73.310;2022-07-29T03:33:43;99258.25;;;20.09;95.88
61874;BME280;49692;55.052;73.310;2022-07-29T03:36:09;99252.91;;;20.28;95.50
61874;BME280;49692;55.052;73.310;2022-07-29T03:38:36;99245.63;;;20.30;95.87
61874;BME280;49692;55.052;73.310;2022-07-29T03:41:10;99246.16;;;20.24;96.29
61874;BME280;49692;55.052;73.310;2022-07-29T03:43:40;99249.09;;;20.41;95.72
61874;BME280;49692;55.052;73.310;2022-07-29T03:46:09;99254.88;;;20.07;95.98
61874;BME280;49692;55.052;73.310;2022-07-29T03:48:39;99256.72;;;20.16;96.20
61874;BME280;49692;55.052;73.310;2022-07-29T03:51:08;99245.72;;;19.89;95.98
61874;BME280;49692;55.052;73.310;2022-07-29T03:53:35;99241.78;;;19.94;95.77
61874;BME280;49692;55.052;73.310;2022-07-29T03:56:03;99240.00;;;20.14;95.54
61874;BME280;49692;55.052;73.310;2022-07-29T03:58:30;99233.97;;;20.22;96.21
61874;BME280;49692;55.052;73.310;2022-07-29T04:00:58;99234.66;;;20.24;94.74
61874;BME280;49692;55.052;73.310;2022-07-29T04:03:25;99228.19;;;20.26;94.72
61874;BME280;49692;55.052;73.310;2022-07-29T04:06:02;99226.59;;;20.53;94.38
61874;BME280;49692;55.052;73.310;2022-07-29T04:08:29;99233.81;;;20.33;94.90
61874;BME280;49692;55.052;73.310;2022-07-29T04:10:56;99236.75;;;20.30;95.30
61874;BME280;49692;55.052;73.310;2022-07-29T04:13:24;99239.03;;;20.25;95.23
61874;BME280;49692;55.052;73.310;2022-07-29T04:15:58;99238.44;;;20.31;95.27
61874;BME280;49692;55.052;73.310;2022-07-29T04:18:36;99237.44;;;19.93;96.33
61874;BME280;49692;55.052;73.310;2022-07-29T04:21:02;99240.28;;;20.11;95.81
61874;BME280;49692;55.052;73.310;2022-07-29T04:23:30;99243.34;;;19.96;96.72
61874;BME280;49692;55.052;73.310;2022-07-29T04:25:59;99233.91;;;19.92;97.84
61874;BME280;49692;55.052;73.310;2022-07-29T04:28:27;99239.44;;;20.10;97.18
61874;BME280;49692;55.052;73.310;2022-07-29T04:30:53;99236.91;;;20.28;96.09
61874;BME280;49692;55.052;73.310;2022-07-29T04:33:19;99237.03;;;20.37;96.11
61874;BME280;49692;55.052;73.310;2022-07-29T04:35:46;99238.25;;;20.62;95.51
61874;BME280;49692;55.052;73.310;2022-07-29T04:38:12;99234.88;;;20.70;94.84
61874;BME280;49692;55.052;73.310;2022-07-29T04:40:39;99238.44;;;21.08;94.26
61874;BME280;49692;55.052;73.310;2022-07-29T04:43:05;99229.06;;;20.94;94.80
61874;BME280;49692;55.052;73.310;2022-07-29T04:45:32;99236.53;;;21.56;93.59
61874;BME280;49692;55.052;73.310;2022-07-29T04:48:19;99232.31;;;21.99;93.21
61874;BME280;49692;55.052;73.310;2022-07-29T04:50:46;99240.94;;;21.65;92.70
61874;BME280;49692;55.052;73.310;2022-07-29T04:53:12;99233.84;;;21.74;92.50
61874;BME280;49692;55.052;73.310;2022-07-29T04:55:44;99246.00;;;21.68;92.93
61874;BME280;49692;55.052;73.310;2022-07-29T04:58:11;99240.47;;;21.24;94.22
61874;BME280;49692;55.052;73.310;2022-07-29T05:00:39;99242.59;;;21.76;93.58
61874;BME280;49692;55.052;73.310;2022-07-29T05:03:15;99241.41;;;21.61;92.36
61874;BME280;49692;55.052;73.310;2022-07-29T05:05:45;99237.69;;;21.71;92.57
61874;BME280;49692;55.052;73.310;2022-07-29T05:08:12;99241.50;;;21.97;90.94
61874;BME280;49692;55.052;73.310;2022-07-29T05:10:38;99238.13;;;21.77;91.49
61874;BME280;49692;55.052;73.310;2022-07-29T05:13:06;99242.31;;;21.79;90.68
61874;BME280;49692;55.052;73.310;2022-07-29T05:15:34;99235.69;;;22.01;91.91
61874;BME280;49692;55.052;73.310;2022-07-29T05:18:01;99238.13;;;21.95;90.09
61874;BME280;49692;55.052;73.310;2022-07-29T05:20:28;99237.53;;;22.01;91.72
61874;BME280;49692;55.052;73.310;2022-07-29T05:23:01;99244.63;;;22.10;90.52
61874;BME280;49692;55.052;73.310;2022-07-29T05:25:29;99234.53;;;21.86;89.97
61874;BME280;49692;55.052;73.310;2022-07-29T05:27:56;99244.63;;;22.10;90.33
61874;BME280;49692;55.052;73.310;2022-07-29T05:30:23;99242.19;;;21.99;92.01
61874;BME280;49692;55.052;73.310;2022-07-29T05:32:49;99245.38;;;22.02;90.71
61874;BME280;49692;55.052;73.310;2022-07-29T05:35:16;99241.03;;;22.01;87.86
61874;BME280;49692;55.052;73.310;2022-07-29T05:37:47;99247.28;;;22.46;88.61
61874;BME280;49692;55.052;73.310;2022-07-29T05:40:14;99249.75;;;22.40;88.66
61874;BME280;49692;55.052;73.310;2022-07-29T05:42:40;99237.22;;;22.48;86.62
61874;BME280;49692;55.052;73.310;2022-07-29T05:45:10;99237.13;;;22.58;89.19
61874;BME280;49692;55.052;73.310;2022-07-29T05:47:37;99250.63;;;22.93;88.49
61874;BME280;49692;55.052;73.310;2022-07-29T05:50:09;99243.09;;;23.23;87.87
61874;BME280;49692;55.052;73.310;2022-07-29T05:52:47;99251.13;;;23.23;85.08
61874;BME280;49692;55.052;73.310;2022-07-29T05:55:24;99244.47;;;23.35;84.74
61874;BME280;49692;55.052;73.310;2022-07-29T05:57:52;99253.25;;;23.46;85.70
61874;BME280;49692;55.052;73.310;2022-07-29T06:00:22;99247.59;;;23.22;86.21
61874;BME280;49692;55.052;73.310;2022-07-29T06:02:48;99252.34;;;23.02;82.96
61874;BME280;49692;55.052;73.310;2022-07-29T06:05:25;99245.72;;;23.15;86.81
61874;BME280;49692;55.052;73.310;2022-07-29T06:07:51;99251.06;;;23.15;83.65
61874;BME280;49692;55.052;73.310;2022-07-29T06:10:22;99251.16;;;23.39;83.38
61874;BME280;49692;55.052;73.310;2022-07-29T06:12:49;99244.31;;;23.37;85.29
61874;BME280;49692;55.052;73.310;2022-07-29T06:15:15;99246.22;;;23.45;84.81
61874;BME280;49692;55.052;73.310;2022-07-29T06:17:42;99247.50;;;23.41;85.65
61874;BME280;49692;55.052;73.310;2022-07-29T06:20:18;99252.75;;;23.50;83.67
61874;BME280;49692;55.052;73.310;2022-07-29T06:22:45;99265.69;;;23.55;84.95
61874;BME280;49692;55.052;73.310;2022-07-29T06:25:17;99263.28;;;23.87;83.69
61874;BME280;49692;55.052;73.310;2022-07-29T06:27:52;99264.91;;;23.79;82.95
61874;BME280;49692;55.052;73.310;2022-07-29T06:30:19;99274.50;;;23.90;83.32
61874;BME280;49692;55.052;73.310;2022-07-29T06:32:45;99270.00;;;24.07;84.34
61874;BME280;49692;55.052;73.310;2022-07-29T06:35:18;99269.28;;;23.80;82.86
61874;BME280;49692;55.052;73.310;2022-07-29T06:37:54;99264.06;;;23.71;81.63
61874;BME280;49692;55.052;73.310;2022-07-29T06:40:21;99258.09;;;24.10;82.17
61874;BME280;49692;55.052;73.310;2022-07-29T06:43:06;99257.09;;;24.11;79.96
61874;BME280;49692;55.052;73.310;2022-07-29T06:45:37;99257.16;;;24.36;81.07
61874;BME280;49692;55.052;73.310;2022-07-29T06:48:06;99242.03;;;24.43;79.94
61874;BME280;49692;55.052;73.310;2022-07-29T06:50:33;99241.69;;;24.71;78.28
61874;BME280;49692;55.052;73.310;2022-07-29T06:53:00;99246.38;;;24.69;79.83
61874;BME280;49692;55.052;73.310;2022-07-29T06:55:26;99253.75;;;24.75;80.33
61874;BME280;49692;55.052;73.310;2022-07-29T06:57:52;99251.56;;;24.79;80.81
61874;BME280;49692;55.052;73.310;2022-07-29T07:00:19;99250.91;;;24.77;80.09
61874;BME280;49692;55.052;73.310;2022-07-29T07:02:46;99260.09;;;24.90;78.58
61874;BME280;49692;55.052;73.310;2022-07-29T07:05:17;99259.75;;;24.94;78.86
61874;BME280;49692;55.052;73.310;2022-07-29T07:07:48;99250.56;;;24.80;77.52
61874;BME280;49692;55.052;73.310;2022-07-29T07:10:26;99258.75;;;24.95;76.52
61874;BME280;49692;55.052;73.310;2022-07-29T07:12:59;99254.72;;;24.90;78.96
61874;BME280;49692;55.052;73.310;2022-07-29T07:15:37;99255.22;;;25.11;76.98
61874;BME280;49692;55.052;73.310;2022-07-29T07:18:06;99256.28;;;25.41;76.81
61874;BME280;49692;55.052;73.310;2022-07-29T07:20:34;99251.25;;;25.38;77.04
61874;BME280;49692;55.052;73.310;2022-07-29T07:23:01;99252.63;;;25.26;78.49
61874;BME280;49692;55.052;73.310;2022-07-29T07:25:27;99251.22;;;25.46;75.77
61874;BME280;49692;55.052;73.310;2022-07-29T07:27:54;99257.84;;;25.75;77.25
61874;BME280;49692;55.052;73.310;2022-07-29T07:30:21;99255.78;;;25.38;76.37
61874;BME280;49692;55.052;73.310;2022-07-29T07:32:47;99252.44;;;25.75;75.71
61874;BME280;49692;55.052;73.310;2022-07-29T07:35:24;99239.66;;;25.69;75.32
61874;BME280;49692;55.052;73.310;2022-07-29T07:37:50;99231.75;;;25.99;77.56
61874;BME280;49692;55.052;73.310;2022-07-29T07:40:21;99234.69;;;25.89;75.45
61874;BME280;49692;55.052;73.310;2022-07-29T07:42:55;99251.56;;;25.83;74.28
61874;BME280;49692;55.052;73.310;2022-07-29T07:45:22;99243.63;;;26.13;73.62
61874;BME280;49692;55.052;73.310;2022-07-29T07:47:52;99235.22;;;26.31;72.69
61874;BME280;49692;55.052;73.310;2022-07-29T07:50:25;99231.03;;;26.29;74.17
61874;BME280;49692;55.052;73.310;2022-07-29T07:52:54;99239.94;;;26.29;73.40
61874;BME280;49692;55.052;73.310;2022-07-29T07:55:24;99231.03;;;26.52;71.65
61874;BME280;49692;55.052;73.310;2022-07-29T07:57:50;99235.56;;;26.51;71.21
61874;BME280;49692;55.052;73.310;2022-07-29T08:00:17;99239.69;;;26.62;71.11
61874;BME280;49692;55.052;73.310;2022-07-29T08:02:44;99237.97;;;26.99;73.96
61874;BME280;49692;55.052;73.310;2022-07-29T08:05:12;99234.59;;;26.67;71.10
61874;BME280;49692;55.052;73.310;2022-07-29T08:07:46;99226.56;;;26.59;69.88
61874;BME280;49692;55.052;73.310;2022-07-29T08:10:17;99230.41;;;26.95;71.67
61874;BME280;49692;55.052;73.310;2022-07-29T08:13:06;99223.84;;;26.97;71.32
61874;BME280;49692;55.052;73.310;2022-07-29T08:15:36;99233.03;;;26.73;71.92
61874;BME280;49692;55.052;73.310;2022-07-29T08:18:04;99230.22;;;26.66;70.44
61874;BME280;49692;55.052;73.310;2022-07-29T08:20:31;99226.59;;;26.89;71.66
61874;BME280;49692;55.052;73.310;2022-07-29T08:22:59;99224.91;;;26.58;70.35
61874;BME280;49692;55.052;73.310;2022-07-29T08:25:26;99229.41;;;26.81;71.00
61874;BME280;49692;55.052;73.310;2022-07-29T08:27:56;99227.03;;;26.48;69.40
61874;BME280;49692;55.052;73.310;2022-07-29T08:30:23;99238.31;;;26.81;69.02
61874;BME280;49692;55.052;73.310;2022-07-29T08:32:49;99229.50;;;26.87;70.66
61874;BME280;49692;55.052;73.310;2022-07-29T08:35:24;99231.81;;;26.76;68.41
61874;BME280;49692;55.052;73.310;2022-07-29T08:37:52;99218.31;;;26.76;70.07
61874;BME280;49692;55.052;73.310;2022-07-29T08:40:19;99211.47;;;27.03;68.81
61874;BME280;49692;55.052;73.310;2022-07-29T08:42:46;99214.34;;;27.31;68.93
61874;BME280;49692;55.052;73.310;2022-07-29T08:45:14;99219.34;;;27.05;71.29
61874;BME280;49692;55.052;73.310;2022-07-29T08:48:15;99224.47;;;27.44;69.35
61874;BME280;49692;55.052;73.310;2022-07-29T08:50:48;99218.81;;;27.24;70.21
61874;BME280;49692;55.052;73.310;2022-07-29T08:58:34;99212.19;;;27.78;66.82
61874;BME280;49692;55.052;73.310;2022-07-29T09:06:20;99224.03;;;27.62;65.64
61874;BME280;49692;55.052;73.310;2022-07-29T09:13:58;99222.03;;;27.05;68.61
61874;BME280;49692;55.052;73.310;2022-07-29T09:23:08;99233.63;;;27.65;68.74
61874;BME280;49692;55.052;73.310;2022-07-29T09:25:36;99229.78;;;27.08;68.28
61874;BME280;49692;55.052;73.310;2022-07-29T09:28:13;99219.69;;;26.56;67.14
61874;BME280;49692;55.052;73.310;2022-07-29T09:30:57;99231.16;;;27.03;68.60
61874;BME280;49692;55.052;73.310;2022-07-29T09:33:32;99213.22;;;27.62;64.90
61874;BME280;49692;55.052;73.310;2022-07-29T09:36:07;99224.47;;;27.81;62.94
61874;BME280;49692;55.052;73.310;2022-07-29T09:38:35;99232.75;;;27.43;66.72
61874;BME280;49692;55.052;73.310;2022-07-29T09:41:10;99230.13;;;27.50;68.18
61874;BME280;49692;55.052;73.310;2022-07-29T09:43:39;99227.72;;;27.40;66.76
61874;BME280;49692;55.052;73.310;2022-07-29T09:46:12;99224.81;;;27.41;68.04
61874;BME280;49692;55.052;73.310;2022-07-29T09:48:39;99237.06;;;27.22;67.32
61874;BME280;49692;55.052;73.310;2022-07-29T09:51:19;99232.84;;;27.86;67.32
61874;BME280;49692;55.052;73.310;2022-07-29T09:53:57;99234.16;;;27.75;66.56
61874;BME280;49692;55.052;73.310;2022-07-29T09:56:40;99227.06;;;28.11;65.13
61874;BME280;49692;55.052;73.310;2022-07-29T09:59:17;99220.47;;;27.77;63.62
61874;BME280;49692;55.052;73.310;2022-07-29T10:01:48;99220.88;;;27.96;65.97
61874;BME280;49692;55.052;73.310;2022-07-29T10:04:23;99230.16;;;28.08;65.47
61874;BME280;49692;55.052;73.310;2022-07-29T10:07:02;99222.47;;;28.33;65.85
61874;BME280;49692;55.052;73.310;2022-07-29T10:09:34;99220.75;;;28.26;62.90
61874;BME280;49692;55.052;73.310;2022-07-29T10:14:34;99220.31;;;28.00;62.45
61874;BME280;49692;55.052;73.310;2022-07-29T10:17:03;99225.53;;;27.65;66.45
61874;BME280;49692;55.052;73.310;2022-07-29T10:19:31;99221.44;;;27.69;64.97
61874;BME280;49692;55.052;73.310;2022-07-29T10:22:01;99226.84;;;28.34;64.79
61874;BME280;49692;55.052;73.310;2022-07-29T10:24:39;99221.47;;;28.13;62.85
61874;BME280;49692;55.052;73.310;2022-07-29T10:27:08;99227.88;;;28.33;61.77
61874;BME280;49692;55.052;73.310;2022-07-29T10:29:35;99224.41;;;28.18;63.75
61874;BME280;49692;55.052;73.310;2022-07-29T10:43:30;99207.97;;;28.63;63.64
61874;BME280;49692;55.052;73.310;2022-07-29T10:46:02;99223.97;;;27.92;67.26
61874;BME280;49692;55.052;73.310;2022-07-29T10:48:29;99212.34;;;27.92;62.64
61874;BME280;49692;55.052;73.310;2022-07-29T10:51:03;99229.75;;;29.11;61.67
61874;BME280;49692;55.052;73.310;2022-07-29T10:53:50;99214.66;;;30.46;58.75
61874;BME280;49692;55.052;73.310;2022-07-29T10:56:30;99221.66;;;31.21;57.15
61874;BME280;49692;55.052;73.310;2022-07-29T11:01:46;99218.91;;;31.28;53.29
61874;BME280;49692;55.052;73.310;2022-07-29T11:07:10;99220.63;;;31.16;51.50
61874;BME280;49692;55.052;73.310;2022-07-29T11:15:19;99217.75;;;32.52;51.01
61874;BME280;49692;55.052;73.310;2022-07-29T11:20:42;99216.72;;;30.91;54.24
61874;BME280;49692;55.052;73.310;2022-07-29T11:23:40;99237.97;;;30.00;56.30
61874;BME280;49692;55.052;73.310;2022-07-29T11:26:20;99239.69;;;30.55;54.06
61874;BME280;49692;55.052;73.310;2022-07-29T11:28:54;99221.22;;;31.31;52.38
61874;BME280;49692;55.052;73.310;2022-07-29T11:31:45;99229.34;;;32.41;50.51
61874;BME280;49692;55.052;73.310;2022-07-29T11:39:49;99240.03;;;31.19;52.09
61874;BME280;49692;55.052;73.310;2022-07-29T11:45:06;99235.28;;;30.07;54.02
61874;BME280;49692;55.052;73.310;2022-07-29T11:50:30;99230.06;;;30.12;55.35
61874;BME280;49692;55.052;73.310;2022-07-29T11:52:57;99237.59;;;30.17;54.73
61874;BME280;49692;55.052;73.310;2022-07-29T11:55:24;99237.16;;;30.07;56.28
61874;BME280;49692;55.052;73.310;2022-07-29T11:57:55;99238.44;;;29.49;55.73
61874;BME280;49692;55.052;73.310;2022-07-29T12:00:23;99232.66;;;29.17;56.33
61874;BME280;49692;55.052;73.310;2022-07-29T12:02:50;99223.59;;;28.67;56.36
61874;BME280;49692;55.052;73.310;2022-07-29T12:05:42;99238.41;;;29.07;58.15
61874;BME280;49692;55.052;73.310;2022-07-29T12:10:40;99244.16;;;28.40;58.33
61874;BME280;49692;55.052;73.310;2022-07-29T12:13:13;99234.13;;;28.12;58.67
61874;BME280;49692;55.052;73.310;2022-07-29T12:15:41;99244.53;;;27.93;58.43
61874;BME280;49692;55.052;73.310;2022-07-29T12:18:16;99241.81;;;28.08;58.89
61874;BME280;49692;55.052;73.310;2022-07-29T12:20:44;99251.63;;;27.95;60.27
61874;BME280;49692;55.052;73.310;2022-07-29T12:23:15;99252.66;;;27.42;60.27
61874;BME280;49692;55.052;73.310;2022-07-29T12:25:43;99251.25;;;27.98;58.36
61874;BME280;49692;55.052;73.310;2022-07-29T12:28:14;99258.28;;;27.77;58.64
61874;BME280;49692;55.052;73.310;2022-07-29T12:30:47;99260.34;;;27.75;61.25
61874;BME280;49692;55.052;73.310;2022-07-29T12:33:15;99268.66;;;27.58;59.40
61874;BME280;49692;55.052;73.310;2022-07-29T12:35:53;99261.63;;;27.27;58.50
61874;BME280;49692;55.052;73.310;2022-07-29T12:38:21;99280.72;;;27.62;57.72
61874;BME280;49692;55.052;73.310;2022-07-29T12:40:52;99281.38;;;27.65;58.66
61874;BME280;49692;55.052;73.310;2022-07-29T12:43:22;99298.47;;;27.35;59.61
61874;BME280;49692;55.052;73.310;2022-07-29T12:45:54;99293.06;;;27.20;58.46
61874;BME280;49692;55.052;73.310;2022-07-29T12:48:40;99290.03;;;27.75;58.09
61874;BME280;49692;55.052;73.310;2022-07-29T12:51:07;99291.34;;;27.64;59.30
61874;BME280;49692;55.052;73.310;2022-07-29T12:54:11;99293.88;;;27.81;56.62
61874;BME280;49692;55.052;73.310;2022-07-29T12:56:58;99299.41;;;27.94;56.44
61874;BME280;49692;55.052;73.310;2022-07-29T12:59:25;99307.25;;;27.74;58.51
61874;BME280;49692;55.052;73.310;2022-07-29T13:01:53;99307.34;;;27.66;57.95
61874;BME280;49692;55.052;73.310;2022-07-29T13:04:30;99319.19;;;27.65;58.18
61874;BME280;49692;55.052;73.310;2022-07-29T13:07:03;99318.41;;;27.86;58.00
61874;BME280;49692;55.052;73.310;2022-07-29T13:12:12;99318.69;;;27.91;56.88
61874;BME280;49692;55.052;73.310;2022-07-29T13:14:49;99324.72;;;28.30;56.91
61874;BME280;49692;55.052;73.310;2022-07-29T13:17:22;99330.59;;;28.12;57.55
61874;BME280;49692;55.052;73.310;2022-07-29T13:20:04;99324.06;;;28.06;55.48
61874;BME280;49692;55.052;73.310;2022-07-29T13:22:56;99328.00;;;29.89;52.75
61874;BME280;49692;55.052;73.310;2022-07-29T13:25:36;99332.84;;;29.65;50.16
61874;BME280;49692;55.052;73.310;2022-07-29T13:28:18;99343.59;;;30.56;50.48
61874;BME280;49692;55.052;73.310;2022-07-29T13:31:14;99336.78;;;30.04;48.98
61874;BME280;49692;55.052;73.310;2022-07-29T13:34:08;99336.50;;;30.61;49.59
61874;BME280;49692;55.052;73.310;2022-07-29T13:36:53;99338.03;;;30.09;51.04
61874;BME280;49692;55.052;73.310;2022-07-29T13:39:51;99330.69;;;30.64;46.92
61874;BME280;49692;55.052;73.310;2022-07-29T13:42:39;99335.88;;;30.79;46.61
61874;BME280;49692;55.052;73.310;2022-07-29T13:45:16;99348.41;;;30.47;46.62
61874;BME280;49692;55.052;73.310;2022-07-29T13:47:46;99347.53;;;29.78;47.84
61874;BME280;49692;55.052;73.310;2022-07-29T13:50:20;99338.19;;;29.45;49.27
61874;BME280;49692;55.052;73.310;2022-07-29T13:53:00;99348.53;;;28.84;52.26
61874;BME280;49692;55.052;73.310;2022-07-29T13:55:31;99344.31;;;27.80;53.37
61874;BME280;49692;55.052;73.310;2022-07-29T13:58:10;99341.72;;;27.57;54.78
61874;BME280;49692;55.052;73.310;2022-07-29T14:00:41;99346.66;;;27.23;54.39
61874;BME280;49692;55.052;73.310;2022-07-29T14:03:11;99354.34;;;26.88;55.68
61874;BME280;49692;55.052;73.310;2022-07-29T14:05:40;99355.88;;;26.91;55.40
61874;BME280;49692;55.052;73.310;2022-07-29T14:08:19;99362.66;;;26.86;56.90
61874;BME280;49692;55.052;73.310;2022-07-29T14:11:03;99355.34;;;26.72;56.13
61874;BME280;49692;55.052;73.310;2022-07-29T14:13:34;99369.22;;;26.37;56.92
61874;BME280;49692;55.052;73.310;2022-07-29T14:16:04;99366.09;;;26.25;58.71
61874;BME280;49692;55.052;73.310;2022-07-29T14:18:43;99367.25;;;26.00;59.17
61874;BME280;49692;55.052;73.310;2022-07-29T14:21:17;99363.53;;;26.01;57.97
61874;BME280;49692;55.052;73.310;2022-07-29T14:23:46;99349.97;;;25.86;60.08
61874;BME280;49692;55.052;73.310;2022-07-29T14:26:29;99346.84;;;26.05;60.01
61874;BME280;49692;55.052;73.310;2022-07-29T14:28:56;99348.69;;;25.65;59.33